Time;durP1;ratioP1;P1;durP2;ratioP2;P2;SDS_P1;SDS_P2;PMS_P1;PMS_P2;Temp;Humidity;BMP_temperature;BMP_pressure;BME280_temperature;BME280_humidity;BME280_pressure;Samples;Min_cycle;Max_cycle;Signal;HPM_P1;HPM_P2
2021/03/15 00:00:22;;;;;;;16.47;14.00;;;;;;;7.28;100.00;88319.00;5013280;28;20200;-82
2021/03/15 00:02:51;;;;;;;17.00;14.07;;;;;;;7.29;100.00;88304.09;5012979;28;20194;-83
2021/03/15 00:05:19;;;;;;;16.50;14.07;;;;;;;7.33;100.00;88303.09;5013047;28;20211;-81
2021/03/15 00:07:46;;;;;;;22.30;16.20;;;;;;;7.25;100.00;88300.66;5012808;28;20655;-80
2021/03/15 00:10:14;;;;;;;18.07;14.30;;;;;;;7.31;100.00;88258.34;5013051;28;20235;-80
2021/03/15 00:12:42;;;;;;;17.40;15.40;;;;;;;7.31;100.00;88268.00;5012540;28;20671;-80
2021/03/15 00:15:11;;;;;;;21.10;14.83;;;;;;;7.37;100.00;88271.88;5012845;28;20204;-81
2021/03/15 00:17:38;;;;;;;15.73;14.10;;;;;;;7.39;100.00;88322.66;5012588;28;20290;-80
2021/03/15 00:20:08;;;;;;;16.47;14.73;;;;;;;7.45;100.00;88298.91;5013197;28;20557;-80
2021/03/15 00:22:35;;;;;;;16.83;15.03;;;;;;;7.47;100.00;88247.16;5012721;28;20202;-80
2021/03/15 00:25:02;;;;;;;19.13;15.73;;;;;;;7.12;100.00;88237.34;5012986;28;20199;-80
2021/03/15 00:27:29;;;;;;;16.73;14.83;;;;;;;7.16;100.00;88071.22;5012473;28;20751;-80
2021/03/15 00:29:57;;;;;;;15.73;14.07;;;;;;;7.23;100.00;87938.34;5012611;28;20226;-80
2021/03/15 00:32:24;;;;;;;16.77;14.93;;;;;;;7.03;100.00;87902.91;5012238;28;20196;-81
2021/03/15 00:34:51;;;;;;;16.43;14.67;;;;;;;7.27;100.00;87712.19;5012447;28;20199;-80
2021/03/15 00:37:18;;;;;;;16.57;14.57;;;;;;;7.47;100.00;87623.44;5012396;28;20200;-80
2021/03/15 00:39:45;;;;;;;16.27;14.57;;;;;;;7.60;100.00;87640.41;5012182;28;20229;-80
2021/03/15 00:42:12;;;;;;;15.17;13.57;;;;;;;7.18;100.00;87743.00;5012320;28;20290;-80
2021/03/15 00:44:39;;;;;;;16.27;14.40;;;;;;;6.86;100.00;87682.47;5012366;28;20342;-80
2021/03/15 00:47:06;;;;;;;17.23;14.37;;;;;;;6.71;100.00;87537.34;5012260;28;20676;-80
2021/03/15 00:49:33;;;;;;;17.70;14.00;;;;;;;6.72;100.00;87275.59;5012023;28;20290;-79
2021/03/15 00:52:00;;;;;;;17.47;15.63;;;;;;;6.71;100.00;87016.88;5012154;28;20261;-79
2021/03/15 00:54:27;;;;;;;17.90;15.10;;;;;;;6.97;100.00;86741.47;5012241;28;20199;-80
2021/03/15 00:56:54;;;;;;;17.57;15.00;;;;;;;6.96;100.00;86748.53;5012100;28;20211;-80
2021/03/15 00:59:20;;;;;;;15.57;13.97;;;;;;;7.03;100.00;86831.22;5012307;28;20266;-80
2021/03/15 01:01:47;;;;;;;17.37;15.40;;;;;;;6.79;100.00;86902.97;5011655;28;20650;-80
2021/03/15 01:04:16;;;;;;;19.47;17.37;;;;;;;6.88;100.00;86809.56;5012271;28;20322;-80
2021/03/15 01:06:43;;;;;;;20.20;16.67;;;;;;;6.82;100.00;86856.13;5012121;28;20199;-80
2021/03/15 01:09:11;;;;;;;36.80;24.33;;;;;;;6.59;100.00;87066.66;5012065;28;20206;-80
2021/03/15 01:11:38;;;;;;;38.13;23.43;;;;;;;6.78;100.00;87191.53;5012024;28;20200;-80
2021/03/15 01:14:05;;;;;;;24.27;20.37;;;;;;;6.60;100.00;87393.84;5012014;28;20203;-80
2021/03/15 01:16:32;;;;;;;24.10;19.07;;;;;;;6.73;100.00;87459.56;5012300;28;20207;-79
2021/03/15 01:19:00;;;;;;;22.17;16.97;;;;;;;6.81;100.00;87584.41;5011489;28;20262;-80
2021/03/15 01:21:28;;;;;;;19.80;17.13;;;;;;;6.50;100.00;87722.72;5012345;28;20620;-80
2021/03/15 01:23:55;;;;;;;19.80;16.03;;;;;;;6.65;100.00;87669.78;5011857;28;20257;-79
2021/03/15 01:26:22;;;;;;;18.87;14.97;;;;;;;6.70;100.00;87711.22;5011807;28;20246;-80
2021/03/15 01:28:49;;;;;;;18.20;15.00;;;;;;;6.88;100.00;87711.53;5011763;28;20237;-80
2021/03/15 01:31:15;;;;;;;18.23;16.27;;;;;;;6.78;100.00;87778.00;5011942;28;20199;-80
2021/03/15 01:33:42;;;;;;;20.30;15.23;;;;;;;6.85;100.00;87787.81;5011681;28;20206;-80
2021/03/15 01:36:09;;;;;;;21.40;15.90;;;;;;;6.80;100.00;87822.00;5011980;28;20238;-80
2021/03/15 01:38:37;;;;;;;20.10;15.77;;;;;;;6.67;100.00;87803.13;5011560;28;20231;-79
2021/03/15 01:41:04;;;;;;;20.40;16.33;;;;;;;6.80;100.00;87687.19;5011861;28;20580;-79
2021/03/15 01:43:31;;;;;;;17.53;14.93;;;;;;;6.60;100.00;87706.56;5011542;28;20588;-80
2021/03/15 01:45:58;;;;;;;19.60;17.20;;;;;;;6.23;100.00;87800.69;5011590;28;20210;-80
2021/03/15 01:48:25;;;;;;;22.20;16.63;;;;;;;5.99;100.00;87860.78;5011513;28;20238;-80
2021/03/15 01:50:52;;;;;;;21.17;17.60;;;;;;;5.72;100.00;87904.75;5011748;28;20199;-80
2021/03/15 01:53:20;;;;;;;21.47;16.67;;;;;;;5.69;100.00;87840.38;5011497;28;20207;-80
2021/03/15 01:55:49;;;;;;;18.53;16.17;;;;;;;6.01;100.00;87695.34;5011664;28;20196;-80
2021/03/15 01:58:16;;;;;;;17.70;14.43;;;;;;;6.12;100.00;87628.59;5011395;28;20717;-80
2021/03/15 02:00:43;;;;;;;18.87;15.77;;;;;;;6.09;100.00;87644.91;5011508;28;20289;-80
2021/03/15 02:03:10;;;;;;;17.60;15.17;;;;;;;5.86;100.00;87733.31;5011767;28;20619;-80
2021/03/15 02:05:40;;;;;;;20.13;14.30;;;;;;;5.76;100.00;87715.63;5011343;28;20207;-79
2021/03/15 02:08:08;;;;;;;20.53;14.87;;;;;;;5.73;100.00;87670.19;5011519;28;20231;-80
2021/03/15 02:10:36;;;;;;;18.80;15.17;;;;;;;5.79;100.00;87599.69;5011577;28;20620;-80
2021/03/15 02:13:18;;;;;;;19.83;14.37;;;;;;;6.10;100.00;87469.38;5011378;28;20283;-80
2021/03/15 02:15:58;;;;;;;16.47;14.70;;;;;;;6.08;100.00;87541.13;5013760;28;20187;-80
2021/03/15 02:18:34;;;;;;;21.93;15.97;;;;;;;5.96;100.00;87667.00;5014938;28;20199;-80
2021/03/15 02:21:41;;;;;;;25.63;19.47;;;;;;;6.10;100.00;87744.63;5015294;28;20218;-80
2021/03/15 02:24:16;;;;;;;19.40;15.83;;;;;;;5.51;100.00;87957.00;5014766;28;20187;-80
2021/03/15 02:27:23;;;;;;;18.87;16.47;;;;;;;5.54;100.00;87813.22;5015153;28;20274;-80
2021/03/15 02:30:26;;;;;;;19.93;14.57;;;;;;;5.77;100.00;87665.06;4954507;29;20325;-80
2021/03/15 02:33:31;;;;;;;18.27;15.13;;;;;;;5.59;100.00;87701.13;5013998;28;20199;-79
2021/03/15 02:36:02;;;;;;;18.40;14.60;;;;;;;5.76;100.00;87574.34;5014467;28;20283;-80
2021/03/15 02:38:35;;;;;;;17.53;14.20;;;;;;;5.79;100.00;87508.59;5014787;28;20277;-79
2021/03/15 02:41:04;;;;;;;28.07;19.03;;;;;;;5.33;100.00;87654.81;5014706;28;20184;-80
2021/03/15 02:43:35;;;;;;;28.90;20.30;;;;;;;5.20;100.00;87695.78;5014433;28;20250;-79
2021/03/15 02:46:04;;;;;;;24.80;18.77;;;;;;;5.36;100.00;87663.78;5014899;28;20275;-79
2021/03/15 02:48:35;;;;;;;25.87;19.30;;;;;;;5.02;100.00;87803.75;5014326;28;20206;-79
2021/03/15 02:51:06;;;;;;;22.33;17.67;;;;;;;5.27;100.00;87786.19;5014257;28;20188;-79
2021/03/15 02:53:34;;;;;;;21.50;16.40;;;;;;;5.39;100.00;87905.75;5014247;28;20191;-79
2021/03/15 02:56:06;;;;;;;22.33;17.20;;;;;;;5.24;100.00;88059.91;5014601;28;20238;-79
2021/03/15 02:58:34;;;;;;;27.47;19.50;;;;;;;5.35;100.00;88133.03;5014104;28;20688;-79
2021/03/15 03:01:02;;;;;;;20.17;16.57;;;;;;;5.36;100.00;88222.97;5013688;28;20250;-80
2021/03/15 03:03:30;;;;;;;21.43;16.97;;;;;;;5.39;100.00;88272.53;5014346;28;20618;-79
2021/03/15 03:06:00;;;;;;;29.73;19.50;;;;;;;5.20;100.00;88358.09;5014144;28;20203;-79
2021/03/15 03:08:30;;;;;;;24.53;18.00;;;;;;;5.37;100.00;88347.53;5014310;28;20203;-80
2021/03/15 03:10:58;;;;;;;14.90;13.17;;;;;;;5.28;100.00;88281.81;5013847;28;20195;-79
2021/03/15 03:13:26;;;;;;;15.83;14.03;;;;;;;5.15;100.00;88109.41;5014071;28;20246;-79
2021/03/15 03:15:57;;;;;;;22.27;16.60;;;;;;;5.34;100.00;87910.47;5013881;28;20214;-79
2021/03/15 03:18:25;;;;;;;22.63;17.50;;;;;;;5.11;100.00;87975.19;5013950;28;20611;-80
2021/03/15 03:20:55;;;;;;;22.57;17.47;;;;;;;5.18;100.00;88009.19;5013642;28;20214;-80
2021/03/15 03:23:25;;;;;;;17.70;15.70;;;;;;;5.34;100.00;88027.50;5013650;28;20204;-80
2021/03/15 03:25:56;;;;;;;25.77;16.10;;;;;;;5.37;100.00;88091.84;5013808;28;20217;-80
2021/03/15 03:28:24;;;;;;;236.63;117.27;;;;;;;5.22;100.00;88148.63;5013571;28;20218;-80
2021/03/15 03:30:51;;;;;;;63.83;36.70;;;;;;;5.28;100.00;88127.63;5013510;28;20279;-80
2021/03/15 03:33:20;;;;;;;23.40;17.60;;;;;;;4.77;100.00;88270.81;5013454;28;20684;-80
2021/03/15 03:35:47;;;;;;;21.50;16.60;;;;;;;5.03;100.00;88223.06;5013787;28;20669;-80
2021/03/15 03:38:15;;;;;;;19.93;16.37;;;;;;;4.97;100.00;88233.66;5013289;28;20224;-80
2021/03/15 03:40:42;;;;;;;21.17;17.53;;;;;;;4.98;100.00;88214.34;5013665;28;20246;-80
2021/03/15 03:43:10;;;;;;;230.20;142.93;;;;;;;4.95;100.00;88141.47;5013084;28;20200;-80
2021/03/15 03:45:37;;;;;;;468.87;322.47;;;;;;;4.84;100.00;88146.31;5013455;28;20203;-80
2021/03/15 03:48:04;;;;;;;358.43;254.57;;;;;;;5.15;100.00;88038.44;5013440;28;20195;-79
2021/03/15 03:50:34;;;;;;;205.03;134.90;;;;;;;5.34;100.00;88004.84;5013324;28;20204;-79
2021/03/15 03:53:07;;;;;;;32.00;25.37;;;;;;;4.88;100.00;88131.59;5013198;28;20195;-79
2021/03/15 03:55:42;;;;;;;34.97;24.77;;;;;;;4.47;100.00;88174.06;5013298;28;20715;-79
2021/03/15 03:58:15;;;;;;;35.87;23.27;;;;;;;4.64;100.00;88064.00;5012979;28;20298;-79
2021/03/15 04:00:42;;;;;;;26.27;17.40;;;;;;;4.70;100.00;87987.38;5013002;28;20289;-79
2021/03/15 04:03:15;;;;;;;22.57;18.47;;;;;;;4.96;100.00;87829.25;5012671;28;20262;-79
2021/03/15 04:05:48;;;;;;;25.43;18.57;;;;;;;5.31;100.00;87618.00;5013127;28;20192;-79
2021/03/15 04:08:21;;;;;;;35.13;17.00;;;;;;;5.21;100.00;87405.31;5012921;28;20219;-79
2021/03/15 04:10:49;;;;;;;29.73;20.50;;;;;;;5.11;100.00;87203.13;5013108;28;20188;-79
2021/03/15 04:13:20;;;;;;;24.23;18.53;;;;;;;4.91;100.00;87164.19;5012506;28;20200;-80
2021/03/15 04:15:48;;;;;;;33.77;26.03;;;;;;;4.64;100.00;87198.97;5012913;28;20684;-80
2021/03/15 04:18:17;;;;;;;32.00;22.73;;;;;;;4.55;100.00;87194.03;5012863;28;20234;-79
2021/03/15 04:20:45;;;;;;;28.83;18.20;;;;;;;4.87;100.00;86965.91;5012598;28;20242;-80
2021/03/15 04:23:15;;;;;;;47.60;22.80;;;;;;;5.06;100.00;86732.97;5012605;28;20208;-81
2021/03/15 04:25:45;;;;;;;34.33;22.83;;;;;;;5.26;100.00;86508.09;5013306;28;20192;-81
2021/03/15 04:28:19;;;;;;;33.00;22.00;;;;;;;5.33;100.00;86385.91;5012505;28;20207;-80
2021/03/15 04:30:48;;;;;;;29.97;20.47;;;;;;;5.22;100.00;86450.16;5012460;28;20611;-80
2021/03/15 04:33:16;;;;;;;24.97;19.00;;;;;;;5.08;100.00;86525.47;5011683;28;20235;-80
2021/03/15 04:35:43;;;;;;;28.43;22.00;;;;;;;5.11;100.00;86561.13;5012452;28;20203;-80
2021/03/15 04:38:12;;;;;;;29.30;22.30;;;;;;;5.16;100.00;86582.31;5011405;28;20230;-80
2021/03/15 04:40:41;;;;;;;33.17;24.17;;;;;;;5.28;100.00;86611.72;5012492;28;20286;-79
2021/03/15 04:43:09;;;;;;;69.47;45.60;;;;;;;5.12;100.00;86767.94;5012197;28;20294;-80
2021/03/15 04:45:43;;;;;;;252.80;148.77;;;;;;;5.11;100.00;86849.63;5012463;28;20290;-80
2021/03/15 04:48:11;;;;;;;68.40;43.17;;;;;;;5.13;100.00;86909.81;5012348;28;20184;-80
2021/03/15 04:50:39;;;;;;;66.93;40.27;;;;;;;4.91;100.00;87023.88;5012350;28;20337;-80
2021/03/15 04:53:07;;;;;;;87.40;54.17;;;;;;;5.21;100.00;86961.50;5010806;28;20235;-80
2021/03/15 04:55:34;;;;;;;46.60;30.83;;;;;;;5.07;100.00;87062.69;5005549;28;20297;-79
2021/03/15 04:58:05;;;;;;;138.10;67.43;;;;;;;4.99;100.00;87059.25;5007287;28;20768;-80
2021/03/15 05:00:34;;;;;;;135.17;78.60;;;;;;;5.11;100.00;86972.53;5007924;28;20231;-81
2021/03/15 05:03:06;;;;;;;124.83;65.73;;;;;;;5.34;100.00;86834.63;5011582;28;20372;-82
2021/03/15 05:05:34;;;;;;;61.33;39.40;;;;;;;5.22;100.00;86808.88;5011756;28;20648;-82
2021/03/15 05:08:03;;;;;;;70.13;39.00;;;;;;;5.00;100.00;86774.16;5011919;28;20246;-82
2021/03/15 05:10:31;;;;;;;49.70;29.47;;;;;;;4.95;100.00;86608.94;5012103;28;20199;-82
2021/03/15 05:12:59;;;;;;;39.73;28.67;;;;;;;5.23;100.00;86338.03;5012030;28;20262;-82
2021/03/15 05:15:26;;;;;;;36.50;24.43;;;;;;;4.83;100.00;86261.09;5011989;28;20206;-83
2021/03/15 05:17:55;;;;;;;43.93;32.27;;;;;;;5.17;100.00;85941.13;5012195;28;20227;-83
2021/03/15 05:20:25;;;;;;;40.97;25.03;;;;;;;4.74;100.00;86016.56;5012012;28;20257;-83
2021/03/15 05:22:53;;;;;;;32.77;22.87;;;;;;;4.74;100.00;85962.03;5011952;28;20207;-83
2021/03/15 05:25:21;;;;;;;36.20;22.37;;;;;;;4.72;100.00;85930.53;5011906;28;20213;-83
2021/03/15 05:27:50;;;;;;;30.27;23.00;;;;;;;4.71;100.00;85888.25;5011984;28;20239;-83
2021/03/15 05:30:19;;;;;;;32.03;23.20;;;;;;;4.92;100.00;85752.31;5012316;28;20202;-83
2021/03/15 05:32:50;;;;;;;34.87;22.90;;;;;;;5.19;100.00;85603.63;5011744;28;20688;-83
2021/03/15 05:35:19;;;;;;;33.17;24.23;;;;;;;5.40;100.00;85520.22;5012254;28;20199;-83
2021/03/15 05:37:49;;;;;;;35.10;26.07;;;;;;;5.36;100.00;85570.75;5011804;28;20239;-82
2021/03/15 05:40:18;;;;;;;40.60;28.07;;;;;;;5.29;100.00;85165.41;5012152;28;20305;-83
2021/03/15 05:43:15;;;;;;;34.90;25.07;;;;;;;5.49;100.00;85120.09;5011852;28;20200;-83
2021/03/15 05:46:08;;;;;;;42.23;29.93;;;;;;;5.58;100.00;85114.38;5008114;28;20346;-83
2021/03/15 05:48:56;;;;;;;40.63;36.23;;;;;;;5.68;100.00;85118.63;5011018;28;20250;-83
2021/03/15 05:52:06;;;;;;;42.43;31.50;;;;;;;5.69;100.00;85101.91;5015466;28;20279;-83
2021/03/15 05:55:15;;;;;;;38.40;29.60;;;;;;;5.71;100.00;85112.63;4974532;28;20205;-83
2021/03/15 05:58:08;;;;;;;41.60;32.17;;;;;;;5.93;100.00;85060.94;4974377;28;20223;-83
2021/03/15 06:00:54;;;;;;;44.77;33.00;;;;;;;5.63;100.00;85261.38;4974212;28;20343;-83
2021/03/15 06:03:38;;;;;;;43.13;32.40;;;;;;;5.73;100.00;85235.19;4974339;28;20691;-83
2021/03/15 06:06:08;;;;;;;60.60;40.57;;;;;;;5.73;100.00;85291.66;4974254;28;20197;-83
2021/03/15 06:08:40;;;;;;;57.33;38.80;;;;;;;5.78;100.00;85308.69;4974314;28;20189;-82
2021/03/15 06:11:11;;;;;;;37.57;28.87;;;;;;;5.99;100.00;85277.09;4974058;28;20201;-82
2021/03/15 06:13:40;;;;;;;39.87;26.33;;;;;;;5.81;100.00;85385.91;4974286;28;20196;-83
2021/03/15 06:16:09;;;;;;;37.13;26.87;;;;;;;5.82;100.00;85356.94;4974094;28;20236;-83
2021/03/15 06:18:37;;;;;;;40.43;29.03;;;;;;;6.09;100.00;85291.06;4973834;28;20709;-83
2021/03/15 06:21:05;;;;;;;40.37;29.17;;;;;;;6.15;100.00;85289.47;4974141;28;20196;-82
2021/03/15 06:23:33;;;;;;;41.37;31.37;;;;;;;6.04;100.00;85320.91;4973583;28;20204;-83
2021/03/15 06:26:01;;;;;;;39.97;30.23;;;;;;;5.85;100.00;85371.72;5007902;28;20200;-83
2021/03/15 06:28:29;;;;;;;35.10;28.67;;;;;;;5.90;100.00;85326.31;5015567;28;20606;-84
2021/03/15 06:30:56;;;;;;;52.23;40.80;;;;;;;6.19;100.00;85207.59;5015276;28;20202;-83
2021/03/15 06:33:23;;;;;;;39.43;32.70;;;;;;;6.74;100.00;84973.50;5014508;28;20203;-83
2021/03/15 06:35:57;;;;;;;28.97;23.03;;;;;;;7.16;100.00;84738.94;5014865;28;20684;-84
2021/03/15 06:38:25;;;;;;;30.93;25.73;;;;;;;7.07;100.00;84744.09;5014745;28;20207;-83
2021/03/15 06:40:53;;;;;;;20.40;17.77;;;;;;;7.29;100.00;84648.41;5014826;28;20296;-83
2021/03/15 06:43:21;;;;;;;21.70;19.50;;;;;;;7.60;100.00;84486.09;5014533;28;20298;-84
2021/03/15 06:45:49;;;;;;;19.13;16.93;;;;;;;7.71;100.00;84455.09;5014463;28;20668;-83
2021/03/15 06:48:17;;;;;;;19.17;15.43;;;;;;;7.79;100.00;84427.63;5014831;28;20290;-84
2021/03/15 06:50:44;;;;;;;18.23;15.33;;;;;;;7.88;100.00;84410.53;5014598;28;20203;-83
2021/03/15 06:53:11;;;;;;;20.20;16.63;;;;;;;8.10;100.00;84357.06;5013087;28;20199;-83
2021/03/15 06:55:48;;;;;;;17.17;15.37;;;;;;;8.23;100.00;84324.88;5013897;28;20211;-83
2021/03/15 06:58:28;;;;;;;21.90;17.43;;;;;;;8.21;100.00;84364.47;5014038;28;20603;-84
2021/03/15 07:01:17;;;;;;;27.20;22.23;;;;;;;8.21;100.00;84448.00;5013710;28;20238;-83
2021/03/15 07:03:45;;;;;;;32.93;25.50;;;;;;;8.32;100.00;84478.91;5014172;28;20230;-84
2021/03/15 07:06:13;;;;;;;30.47;23.93;;;;;;;8.42;100.00;84490.84;5014063;28;20710;-84
2021/03/15 07:08:40;;;;;;;29.53;23.53;;;;;;;8.50;100.00;84499.13;5014064;28;20253;-84
2021/03/15 07:11:18;;;;;;;28.70;24.70;;;;;;;8.71;100.00;84510.63;5014246;28;20195;-84
2021/03/15 07:13:45;;;;;;;56.80;35.43;;;;;;;8.97;100.00;84488.28;5013945;28;20195;-84
2021/03/15 07:16:24;;;;;;;44.93;33.00;;;;;;;9.13;100.00;84552.59;5014094;28;20204;-84
2021/03/15 07:18:51;;;;;;;24.47;21.77;;;;;;;9.17;100.00;84678.69;5013638;28;20211;-84
2021/03/15 07:21:34;;;;;;;27.10;21.97;;;;;;;9.10;100.00;84829.88;5014287;28;20199;-84
2021/03/15 07:24:01;;;;;;;19.63;15.50;;;;;;;9.21;100.00;84919.13;5013930;28;20227;-84
2021/03/15 07:26:30;;;;;;;23.90;19.30;;;;;;;9.16;100.00;85055.66;5013784;28;20199;-84
2021/03/15 07:28:57;;;;;;;16.47;14.47;;;;;;;9.21;100.00;85144.03;5013606;28;20684;-84
2021/03/15 07:31:27;;;;;;;17.10;15.40;;;;;;;9.36;100.00;85210.44;5014061;28;20226;-84
2021/03/15 07:34:15;;;;;;;33.33;26.57;;;;;;;9.38;100.00;85288.50;5014061;28;20591;-84
2021/03/15 07:36:50;;;;;;;28.67;22.00;;;;;;;9.37;100.00;85429.03;5013758;28;20685;-84
2021/03/15 07:39:17;;;;;;;27.07;21.27;;;;;;;9.47;100.00;85511.00;5013625;28;20257;-84
2021/03/15 07:41:46;;;;;;;32.47;25.87;;;;;;;9.47;100.00;85621.63;5013538;28;20282;-84
2021/03/15 07:44:20;;;;;;;26.60;19.47;;;;;;;9.58;100.00;85671.06;5013365;28;20199;-84
2021/03/15 07:46:48;;;;;;;24.03;19.10;;;;;;;9.64;100.00;85761.03;5013735;28;20648;-85
2021/03/15 07:49:23;;;;;;;21.33;19.03;;;;;;;9.65;100.00;85867.22;5013551;28;20287;-85
2021/03/15 07:51:56;;;;;;;13.17;10.37;;;;;;;9.72;100.00;85956.06;5013351;28;20300;-84
2021/03/15 07:54:24;;;;;;;12.00;9.70;;;;;;;9.79;100.00;86078.25;5013324;28;20195;-84
2021/03/15 07:57:16;;;;;;;16.03;13.70;;;;;;;9.79;100.00;86224.84;5013293;28;20202;-84
2021/03/15 07:59:43;;;;;;;11.70;10.50;;;;;;;9.83;100.00;86353.84;5013445;28;20699;-84
2021/03/15 08:02:15;;;;;;;11.53;9.10;;;;;;;9.83;100.00;86491.88;5012880;28;20239;-84
2021/03/15 08:04:43;;;;;;;14.97;9.97;;;;;;;10.10;100.00;86531.22;5013106;28;20191;-85
2021/03/15 08:07:11;;;;;;;12.03;10.00;;;;;;;10.08;100.00;86673.09;5013126;28;20326;-85
2021/03/15 08:09:38;;;;;;;9.20;8.33;;;;;;;10.01;100.00;86817.25;5013382;28;20231;-85
2021/03/15 08:12:09;;;;;;;10.97;9.10;;;;;;;10.19;100.00;86856.41;5012022;28;20200;-84
2021/03/15 08:14:37;;;;;;;12.70;7.43;;;;;;;10.42;100.00;86903.81;5012852;28;20290;-85
2021/03/15 08:17:05;;;;;;;10.17;8.73;;;;;;;10.36;100.00;87038.31;5013145;28;20621;-85
2021/03/15 08:19:36;;;;;;;12.77;10.40;;;;;;;10.33;100.00;87133.44;5013286;28;20266;-85
2021/03/15 08:22:04;;;;;;;11.73;10.20;;;;;;;10.50;100.00;87168.56;5012803;28;20270;-85
2021/03/15 08:24:36;;;;;;;11.70;9.60;;;;;;;10.48;100.00;87264.06;5013131;28;20587;-84
2021/03/15 08:27:04;;;;;;;9.13;8.20;;;;;;;10.51;100.00;87362.22;5012913;28;20253;-84
2021/03/15 08:29:37;;;;;;;13.83;8.60;;;;;;;10.56;100.00;87448.34;5013103;28;20572;-84
2021/03/15 08:32:05;;;;;;;12.23;8.97;;;;;;;10.54;100.00;87546.91;5012585;28;20648;-84
2021/03/15 08:34:37;;;;;;;13.90;10.40;;;;;;;10.67;100.00;87561.91;5012994;28;20207;-85
2021/03/15 08:37:04;;;;;;;12.50;9.57;;;;;;;10.65;100.00;87669.06;5012583;28;20742;-85
2021/03/15 08:39:38;;;;;;;15.87;10.67;;;;;;;10.60;100.00;87755.19;5012490;28;20274;-85
2021/03/15 08:42:28;;;;;;;13.23;8.33;;;;;;;10.46;100.00;87866.03;5012367;28;20659;-85
2021/03/15 08:44:55;;;;;;;12.17;10.33;;;;;;;10.55;100.00;87908.41;5012889;28;20194;-84
2021/03/15 08:47:51;;;;;;;10.13;9.17;;;;;;;11.08;100.00;87868.66;5012721;28;20254;-85
2021/03/15 08:50:59;;;;;;;12.07;6.83;;;;;;;11.07;100.00;88016.78;5012504;28;20247;-85
2021/03/15 08:53:51;;;;;;;12.53;8.87;;;;;;;11.15;100.00;88070.09;5012057;28;20192;-84
2021/03/15 08:56:36;;;;;;;10.97;9.00;;;;;;;10.98;100.00;88244.69;5012535;28;20222;-85
2021/03/15 08:59:04;;;;;;;11.50;9.13;;;;;;;10.80;100.00;88362.50;5012315;28;20215;-85
2021/03/15 09:01:54;;;;;;;11.70;9.10;;;;;;;10.95;100.00;88374.75;5012240;28;20329;-85
2021/03/15 09:04:39;;;;;;;12.80;10.80;;;;;;;10.85;100.00;88448.81;5008157;28;20230;-85
2021/03/15 09:07:31;;;;;;;12.33;9.17;;;;;;;10.67;100.00;88506.25;5012310;28;20195;-85
2021/03/15 09:10:19;;;;;;;20.33;17.43;;;;;;;10.76;100.00;88486.91;5012396;28;20190;-85
2021/03/15 09:13:22;;;;;;;15.83;14.23;;;;;;;10.90;100.00;88447.75;5012074;28;20221;-85
2021/03/15 09:16:00;;;;;;;16.17;12.40;;;;;;;11.00;100.00;88447.16;5012115;28;20191;-85
2021/03/15 09:18:56;;;;;;;15.37;12.80;;;;;;;12.10;100.00;88282.28;5012452;28;20214;-85
2021/03/15 09:21:53;;;;;;;14.80;13.17;;;;;;;11.68;100.00;88494.69;5012207;28;20198;-85
2021/03/15 09:24:39;;;;;;;13.00;11.70;;;;;;;12.20;100.00;88474.72;5014263;28;20199;-86
2021/03/15 09:27:08;;;;;;;46.83;31.07;;;;;;;11.85;100.00;88654.53;5016269;28;20286;-85
2021/03/15 09:29:36;;;;;;;15.47;11.57;;;;;;;11.65;100.00;88753.66;5016319;28;20290;-85
2021/03/15 09:32:05;;;;;;;15.23;12.50;;;;;;;11.66;100.00;88774.31;5016158;28;20203;-85
2021/03/15 09:34:32;;;;;;;14.53;12.67;;;;;;;12.13;100.00;88752.25;5016196;28;20293;-85
2021/03/15 09:37:00;;;;;;;16.70;14.70;;;;;;;11.95;100.00;88873.97;5016045;28;20318;-85
2021/03/15 09:39:29;;;;;;;15.80;14.00;;;;;;;12.45;100.00;88823.03;5016147;28;20708;-85
2021/03/15 09:41:57;;;;;;;15.73;13.97;;;;;;;12.43;100.00;88914.69;5016109;28;20207;-86
2021/03/15 09:44:26;;;;;;;18.90;14.47;;;;;;;12.69;100.00;88939.59;5016087;28;20273;-85
2021/03/15 09:46:54;;;;;;;20.17;14.63;;;;;;;12.68;100.00;89020.44;5015845;28;20207;-85
2021/03/15 09:49:36;;;;;;;18.80;16.77;;;;;;;12.70;100.00;89073.47;5016248;28;20206;-85
2021/03/15 09:52:17;;;;;;;14.10;11.10;;;;;;;12.76;100.00;89185.31;5015722;28;20233;-86
2021/03/15 09:54:45;;;;;;;12.03;10.23;;;;;;;12.56;100.00;89292.41;5015802;28;20188;-85
2021/03/15 09:57:12;;;;;;;15.27;13.30;;;;;;;12.51;100.00;89374.25;5015547;28;20294;-86
2021/03/15 09:59:40;;;;;;;13.63;11.43;;;;;;;12.47;100.00;89372.63;5015614;28;20259;-85
2021/03/15 10:02:07;;;;;;;16.03;12.23;;;;;;;13.05;100.00;89349.19;5015332;28;20281;-84
2021/03/15 10:04:36;;;;;;;20.77;14.60;;;;;;;13.01;100.00;89441.28;5015476;28;20212;-85
2021/03/15 10:07:06;;;;;;;13.07;11.63;;;;;;;12.96;100.00;89482.94;5015719;28;20604;-86
2021/03/15 10:09:33;;;;;;;13.97;12.53;;;;;;;12.90;100.00;89547.47;5015797;28;20684;-86
2021/03/15 10:12:01;;;;;;;14.90;13.33;;;;;;;13.03;100.00;89552.34;5015420;28;20230;-86
2021/03/15 10:14:28;;;;;;;18.30;12.87;;;;;;;13.55;100.00;89530.31;5015365;28;20260;-86
2021/03/15 10:17:01;;;;;;;16.30;13.93;;;;;;;13.62;100.00;89655.53;5015572;28;20290;-86
2021/03/15 10:19:30;;;;;;;11.50;10.27;;;;;;;13.18;100.00;89779.31;5015269;28;20257;-86
2021/03/15 10:22:09;;;;;;;25.13;16.43;;;;;;;12.81;100.00;89808.28;5015243;28;20250;-85
2021/03/15 10:24:38;;;;;;;14.97;13.37;;;;;;;12.77;100.00;89825.84;5015257;28;20188;-86
2021/03/15 10:27:07;;;;;;;16.50;12.17;;;;;;;13.48;100.00;89766.63;5015419;28;20204;-86
2021/03/15 10:29:35;;;;;;;14.57;11.27;;;;;;;13.32;100.00;89842.97;5015181;28;20239;-86
2021/03/15 10:32:05;;;;;;;14.13;9.93;;;;;;;12.90;100.00;89953.81;5014958;28;20203;-85
2021/03/15 10:34:36;;;;;;;13.37;10.03;;;;;;;12.74;100.00;89998.44;5014374;28;20198;-86
2021/03/15 10:37:03;;;;;;;12.73;9.73;;;;;;;12.70;100.00;90017.84;5014380;28;20284;-85
2021/03/15 10:39:30;;;;;;;15.50;10.00;;;;;;;12.79;100.00;90031.69;5014962;28;20290;-85
2021/03/15 10:41:59;;;;;;;14.37;10.93;;;;;;;12.74;100.00;90058.22;5015114;28;20199;-85
2021/03/15 10:44:26;;;;;;;15.23;11.90;;;;;;;12.78;100.00;90064.38;5015149;28;20232;-86
2021/03/15 10:46:54;;;;;;;27.20;16.97;;;;;;;12.72;100.00;90113.09;5015034;28;20203;-86
2021/03/15 10:49:24;;;;;;;19.53;14.57;;;;;;;12.66;100.00;90167.00;5014629;28;20260;-85
2021/03/15 10:51:53;;;;;;;12.90;10.27;;;;;;;12.76;100.00;90180.56;5014781;28;20202;-85
2021/03/15 10:54:27;;;;;;;11.77;7.73;;;;;;;12.68;100.00;90251.72;5014559;28;20204;-85
2021/03/15 10:57:24;;;;;;;8.60;7.63;;;;;;;12.67;100.00;90297.56;5014578;28;20227;-85
2021/03/15 10:59:51;;;;;;;8.27;7.33;;;;;;;12.61;100.00;90365.44;4953976;29;20304;-86
2021/03/15 11:02:26;;;;;;;8.07;5.57;;;;;;;12.65;100.00;90415.59;5000598;28;20781;-85
2021/03/15 11:04:56;;;;;;;9.67;7.60;;;;;;;12.74;100.00;90471.63;5014487;28;20723;-86
2021/03/15 11:07:28;;;;;;;7.60;6.73;;;;;;;13.06;100.00;90489.56;5014570;28;20566;-86
2021/03/15 11:10:05;;;;;;;41.00;28.73;;;;;;;13.15;100.00;90541.44;5014265;28;20204;-86
2021/03/15 11:12:40;;;;;;;23.60;20.17;;;;;;;13.24;100.00;90574.63;5014540;28;20231;-86
2021/03/15 11:15:09;;;;;;;18.23;13.10;;;;;;;13.15;100.00;90638.94;5014379;28;20669;-86
2021/03/15 11:17:38;;;;;;;10.53;8.50;;;;;;;13.04;100.00;90680.66;5014092;28;20206;-86
2021/03/15 11:20:08;;;;;;;9.23;7.67;;;;;;;13.03;100.00;90722.03;5014371;28;20316;-86
2021/03/15 11:22:49;;;;;;;39.23;28.27;;;;;;;13.19;100.00;90740.78;5014069;28;20278;-86
2021/03/15 11:25:18;;;;;;;18.90;15.80;;;;;;;13.48;100.00;90777.13;5014516;28;20199;-86
2021/03/15 11:27:49;;;;;;;11.33;8.80;;;;;;;13.53;100.00;90881.66;5014107;28;20282;-86
2021/03/15 11:30:21;;;;;;;11.33;7.97;;;;;;;13.35;100.00;90949.41;5013970;28;20199;-86
2021/03/15 11:32:48;;;;;;;10.10;6.90;;;;;;;13.30;100.00;90974.06;5013788;28;20201;-85
2021/03/15 11:35:22;;;;;;;15.07;9.33;;;;;;;13.44;100.00;90967.88;5013883;28;20197;-86